createdAt,value
2019-01-29T00:02:29.307Z,0.05
2019-01-29T00:05:00.220Z,-0.01
2019-01-29T00:07:31.175Z,0.07
2019-01-29T00:10:02.142Z,0.09
2019-01-29T00:12:34.734Z,-0.03
2019-01-29T00:15:06.489Z,-0.06
2019-01-29T00:17:37.377Z,0.06
2019-01-29T00:20:10.122Z,0.07
2019-01-29T00:22:41.403Z,-0.02
2019-01-29T00:25:13.232Z,0.01
2019-01-29T00:27:44.483Z,-0.08
2019-01-29T00:30:15.728Z,-0.04
2019-01-29T00:32:46.653Z,-0.15
2019-01-29T00:35:17.871Z,-0.21
2019-01-29T00:37:48.812Z,-0.19
2019-01-29T00:40:19.788Z,-0.26
2019-01-29T00:42:50.725Z,-0.22
2019-01-29T00:45:21.637Z,-0.21
2019-01-29T00:47:52.561Z,-0.25
2019-01-29T00:50:23.479Z,-0.26
2019-01-29T00:52:54.513Z,-0.22
2019-01-29T00:55:25.427Z,-0.31
2019-01-29T00:57:56.323Z,-0.22
2019-01-29T01:00:27.811Z,-0.10
2019-01-29T01:02:58.724Z,-0.11
2019-01-29T01:05:29.789Z,0.03
2019-01-29T01:08:00.683Z,0.02
2019-01-29T01:10:31.577Z,0.09
2019-01-29T01:13:02.793Z,0.20
2019-01-29T01:15:33.989Z,0.23
2019-01-29T01:18:05.058Z,0.29
2019-01-29T01:20:35.980Z,0.26
2019-01-29T01:23:07.314Z,0.38
2019-01-29T01:25:38.517Z,0.25
2019-01-29T01:28:09.495Z,0.40
2019-01-29T01:30:40.474Z,0.43
2019-01-29T01:33:11.360Z,0.43
2019-01-29T01:35:42.324Z,0.40
2019-01-29T01:38:13.544Z,0.42
2019-01-29T01:40:44.432Z,0.44
2019-01-29T01:43:15.358Z,0.48
2019-01-29T01:45:46.528Z,0.49
2019-01-29T01:48:17.433Z,0.61
2019-01-29T01:50:48.639Z,0.64
2019-01-29T01:53:19.537Z,0.72
2019-01-29T01:55:50.470Z,0.62
2019-01-29T01:58:21.364Z,0.67
2019-01-29T02:00:52.731Z,0.70
2019-01-29T02:03:23.636Z,0.73
2019-01-29T02:05:54.601Z,0.63
2019-01-29T02:08:25.582Z,0.58
2019-01-29T02:10:56.625Z,0.78
2019-01-29T02:13:27.622Z,0.70
2019-01-29T02:15:58.934Z,0.79
2019-01-29T02:18:29.811Z,0.74
2019-01-29T02:21:00.746Z,0.71
2019-01-29T02:23:31.683Z,0.88
2019-01-29T02:26:02.595Z,0.79
2019-01-29T02:28:33.524Z,0.84
2019-01-29T02:31:05.085Z,0.96
2019-01-29T02:33:36.013Z,0.93
2019-01-29T02:36:07.005Z,0.93
2019-01-29T02:38:37.917Z,0.98
2019-01-29T02:41:09.192Z,0.96
2019-01-29T02:43:40.176Z,0.99
2019-01-29T02:46:11.341Z,0.92
2019-01-29T02:48:42.236Z,0.83
2019-01-29T02:51:13.191Z,0.94
2019-01-29T02:53:44.120Z,1.03
2019-01-29T02:56:15.029Z,1.07
2019-01-29T02:58:45.965Z,1.13
2019-01-29T03:01:17.008Z,1.16
2019-01-29T03:03:47.906Z,1.04
2019-01-29T03:06:19.046Z,1.17
2019-01-29T03:08:49.941Z,1.24
2019-01-29T03:11:20.977Z,1.18
2019-01-29T03:13:51.889Z,1.19
2019-01-29T03:16:22.766Z,1.23
2019-01-29T03:18:53.710Z,1.17
2019-01-29T03:21:24.598Z,1.26
2019-01-29T03:23:55.824Z,1.15
2019-01-29T03:26:27.087Z,1.22
2019-01-29T03:28:57.986Z,1.13
2019-01-29T03:31:28.933Z,1.22
2019-01-29T03:33:59.922Z,1.24
2019-01-29T03:36:30.839Z,1.10
2019-01-29T03:39:01.728Z,1.05
2019-01-29T03:41:32.912Z,1.15
2019-01-29T03:44:03.843Z,1.09
2019-01-29T03:46:34.800Z,1.15
2019-01-29T03:49:05.926Z,1.12
2019-01-29T03:51:36.815Z,1.17
2019-01-29T03:54:07.829Z,1.04
2019-01-29T03:56:38.817Z,1.04
2019-01-29T03:59:09.708Z,1.10
2019-01-29T04:01:40.758Z,1.08
2019-01-29T04:04:11.661Z,1.11
2019-01-29T04:06:42.634Z,1.03
2019-01-29T04:09:13.729Z,1.09
2019-01-29T04:11:44.660Z,1.00
2019-01-29T04:14:15.634Z,0.88
2019-01-29T04:16:46.515Z,0.90
2019-01-29T04:19:17.399Z,0.80
2019-01-29T04:21:48.313Z,0.83
2019-01-29T04:24:19.285Z,0.75
2019-01-29T04:26:50.263Z,0.84
2019-01-29T04:29:21.134Z,0.83
2019-01-29T04:31:52.014Z,0.73
2019-01-29T04:34:22.933Z,0.76
2019-01-29T04:36:53.978Z,0.65
2019-01-29T04:39:25.210Z,0.80
2019-01-29T04:41:56.380Z,0.75
2019-01-29T04:44:27.330Z,0.88
2019-01-29T04:46:58.624Z,0.75
2019-01-29T04:49:29.829Z,0.90
2019-01-29T04:52:01.054Z,0.75
2019-01-29T04:54:31.998Z,0.81
2019-01-29T04:57:02.956Z,0.81
2019-01-29T04:59:34.180Z,0.72
2019-01-29T05:02:05.187Z,0.73
2019-01-29T05:04:36.154Z,0.83
2019-01-29T05:07:07.418Z,0.76
2019-01-29T05:09:38.297Z,0.78
2019-01-29T05:12:09.507Z,0.79
2019-01-29T05:14:40.432Z,0.74
2019-01-29T05:17:11.471Z,0.82
2019-01-29T05:19:42.740Z,0.75
2019-01-29T05:22:13.612Z,0.73
2019-01-29T05:24:44.540Z,0.77
2019-01-29T05:27:15.743Z,0.70
2019-01-29T05:29:46.747Z,0.69
2019-01-29T05:32:17.641Z,0.83
2019-01-29T05:34:48.520Z,0.78
2019-01-29T05:37:19.811Z,0.70
2019-01-29T05:39:50.684Z,0.75
2019-01-29T05:42:21.708Z,0.83
2019-01-29T05:44:52.593Z,0.78
2019-01-29T05:47:23.494Z,0.66
2019-01-29T05:49:54.478Z,0.57
2019-01-29T05:52:25.383Z,0.65
2019-01-29T05:54:56.621Z,0.61
2019-01-29T05:57:27.613Z,0.62
2019-01-29T05:59:58.501Z,0.66
2019-01-29T06:02:29.755Z,0.61
2019-01-29T06:05:00.668Z,0.52
2019-01-29T06:07:31.587Z,0.43
2019-01-29T06:10:02.506Z,0.45
2019-01-29T06:12:33.480Z,0.39
2019-01-29T06:15:04.564Z,0.38
2019-01-29T06:17:35.475Z,0.32
2019-01-29T06:20:09.478Z,0.24
2019-01-29T06:22:40.362Z,0.36
2019-01-29T06:25:11.442Z,0.32
2019-01-29T06:27:42.530Z,0.40
2019-01-29T06:30:15.000Z,0.39
2019-01-29T06:32:45.946Z,0.48
2019-01-29T06:35:23.553Z,0.56
2019-01-29T06:37:54.662Z,0.57
2019-01-29T06:40:27.945Z,0.45
2019-01-29T06:42:59.188Z,0.49
2019-01-29T06:45:30.099Z,0.57
2019-01-29T06:48:00.985Z,0.50
2019-01-29T06:50:32.317Z,0.46
2019-01-29T06:53:03.484Z,0.49
2019-01-29T06:55:34.458Z,0.52
2019-01-29T06:58:05.792Z,0.46
2019-01-29T07:00:36.815Z,0.65
2019-01-29T07:03:07.833Z,0.55
2019-01-29T07:05:38.810Z,0.61
2019-01-29T07:08:09.771Z,0.64
2019-01-29T07:10:40.674Z,0.58
2019-01-29T07:13:11.943Z,0.58
2019-01-29T07:16:12.548Z,0.71
2019-01-29T07:18:46.567Z,0.69
2019-01-29T07:21:17.484Z,0.67
2019-01-29T07:23:48.402Z,0.73
2019-01-29T07:26:19.327Z,0.83
2019-01-29T07:28:50.564Z,0.85
2019-01-29T07:31:21.437Z,0.88
2019-01-29T07:33:52.632Z,0.93
2019-01-29T07:36:23.533Z,0.97
2019-01-29T07:38:54.811Z,0.92
2019-01-29T07:41:25.711Z,1.06
2019-01-29T07:43:56.607Z,1.04
2019-01-29T07:46:27.548Z,1.09
2019-01-29T07:48:58.465Z,1.09
2019-01-29T07:51:29.487Z,1.17
2019-01-29T07:54:00.375Z,1.24
2019-01-29T07:56:31.259Z,1.25
2019-01-29T07:59:02.185Z,1.24
2019-01-29T08:01:33.140Z,1.45
2019-01-29T08:04:04.113Z,1.51
2019-01-29T08:06:35.038Z,1.51
2019-01-29T08:09:10.445Z,1.43
2019-01-29T08:11:41.361Z,1.33
2019-01-29T08:14:12.312Z,1.32
2019-01-29T08:16:43.288Z,1.26
2019-01-29T08:19:14.191Z,1.30
2019-01-29T08:21:45.143Z,1.25
2019-01-29T08:24:16.319Z,1.26
2019-01-29T08:26:47.505Z,1.49
2019-01-29T08:29:18.468Z,1.46
2019-01-29T08:31:49.343Z,1.64
2019-01-29T08:34:20.551Z,1.99
2019-01-29T08:36:51.455Z,3.90
2019-01-29T08:39:22.458Z,4.04
2019-01-29T08:41:53.756Z,4.47
2019-01-29T08:44:24.945Z,4.43
2019-01-29T08:46:55.876Z,4.26
2019-01-29T08:49:26.807Z,3.94
2019-01-29T08:51:57.740Z,3.63
2019-01-29T08:54:28.666Z,3.42
2019-01-29T08:56:59.550Z,3.10
2019-01-29T08:59:30.487Z,3.09
2019-01-29T09:02:01.390Z,2.95
2019-01-29T09:04:32.387Z,2.77
2019-01-29T09:07:03.304Z,2.53
2019-01-29T09:09:34.186Z,2.63
2019-01-29T09:12:05.146Z,2.66
2019-01-29T09:14:36.036Z,2.62
2019-01-29T09:17:06.961Z,2.63
2019-01-29T09:19:37.884Z,2.63
2019-01-29T09:22:09.083Z,2.58
2019-01-29T09:24:40.016Z,2.59
2019-01-29T09:27:10.908Z,2.54
2019-01-29T09:29:41.855Z,2.50
2019-01-29T09:32:13.294Z,2.51
2019-01-29T09:34:44.180Z,2.55
2019-01-29T09:37:15.132Z,2.48
2019-01-29T09:39:46.764Z,2.52
2019-01-29T09:42:17.647Z,2.40
2019-01-29T09:44:48.956Z,2.34
2019-01-29T09:47:20.231Z,2.58
2019-01-29T09:49:51.177Z,2.58
2019-01-29T09:52:22.073Z,2.67
2019-01-29T09:54:52.961Z,2.64
2019-01-29T09:57:24.139Z,2.58
2019-01-29T09:59:55.032Z,2.45
2019-01-29T10:02:25.965Z,2.52
2019-01-29T10:04:56.879Z,2.46
2019-01-29T10:07:27.782Z,2.60
2019-01-29T10:09:58.778Z,2.59
2019-01-29T10:12:29.693Z,2.53
2019-01-29T10:15:00.630Z,2.60
2019-01-29T10:17:31.914Z,2.59
2019-01-29T10:20:03.363Z,2.64
2019-01-29T10:22:34.438Z,2.81
2019-01-29T10:25:06.238Z,2.75
2019-01-29T10:27:37.163Z,2.80
2019-01-29T10:30:09.747Z,2.87
2019-01-29T10:32:40.638Z,2.84
2019-01-29T10:35:15.534Z,2.90
2019-01-29T10:37:46.447Z,3.07
2019-01-29T10:40:20.544Z,3.16
2019-01-29T10:42:51.788Z,3.14
2019-01-29T10:45:25.576Z,3.28
2019-01-29T10:47:56.528Z,3.22
2019-01-29T10:50:29.613Z,3.21
2019-01-29T10:53:00.750Z,3.13
2019-01-29T10:55:31.735Z,3.14
2019-01-29T10:58:02.665Z,3.19
2019-01-29T11:00:37.822Z,3.37
2019-01-29T11:03:11.221Z,3.39
2019-01-29T11:05:42.421Z,3.49
2019-01-29T11:08:13.310Z,3.49
2019-01-29T11:10:44.265Z,3.55
2019-01-29T11:13:15.234Z,3.62
2019-01-29T11:15:46.225Z,3.66
2019-01-29T11:18:17.799Z,3.68
2019-01-29T11:20:48.755Z,3.64
2019-01-29T11:23:19.628Z,3.56
2019-01-29T11:25:55.802Z,3.83
2019-01-29T11:28:23.167Z,3.80
2019-01-29T11:30:54.078Z,3.77
2019-01-29T11:33:25.109Z,3.85
2019-01-29T11:35:56.013Z,3.88
2019-01-29T11:38:27.000Z,4.02
2019-01-29T11:40:57.928Z,4.07
2019-01-29T11:43:29.134Z,4.08
2019-01-29T11:46:00.330Z,4.03
2019-01-29T11:48:31.215Z,4.16
2019-01-29T11:51:02.160Z,3.98
2019-01-29T11:53:33.096Z,4.00
2019-01-29T11:56:04.946Z,3.81
2019-01-29T11:58:36.352Z,3.84
2019-01-29T12:01:11.803Z,3.82
2019-01-29T12:03:42.803Z,3.64
2019-01-29T12:06:14.228Z,3.75
2019-01-29T12:08:45.431Z,3.76
2019-01-29T12:11:16.444Z,3.95
2019-01-29T12:13:47.480Z,4.01
2019-01-29T12:16:19.618Z,3.90
2019-01-29T12:18:50.634Z,4.03
2019-01-29T12:21:21.967Z,3.97
2019-01-29T12:23:52.872Z,4.08
2019-01-29T12:26:24.096Z,4.15
2019-01-29T12:28:55.301Z,4.17
2019-01-29T12:31:26.246Z,4.06
2019-01-29T12:33:57.157Z,4.06
2019-01-29T12:36:28.419Z,3.90
2019-01-29T12:38:59.655Z,3.76
2019-01-29T12:41:30.640Z,3.62
2019-01-29T12:44:01.929Z,3.57
2019-01-29T12:46:33.137Z,3.73
2019-01-29T12:49:04.158Z,3.76
2019-01-29T12:51:43.112Z,3.85
2019-01-29T12:54:14.375Z,3.92
2019-01-29T12:56:45.381Z,3.70
2019-01-29T12:59:16.332Z,3.71
2019-01-29T13:01:47.406Z,3.71
2019-01-29T13:04:18.749Z,3.75
2019-01-29T13:06:49.641Z,3.76
2019-01-29T13:09:20.688Z,3.67
2019-01-29T13:11:51.666Z,3.66
2019-01-29T13:14:22.574Z,3.63
2019-01-29T13:16:53.817Z,3.56
2019-01-29T13:19:24.707Z,3.48
2019-01-29T13:21:55.644Z,3.38
2019-01-29T13:24:26.555Z,3.26
2019-01-29T13:26:57.467Z,3.21
2019-01-29T13:29:28.400Z,3.26
2019-01-29T13:31:59.302Z,3.28
2019-01-29T13:34:30.250Z,3.24
2019-01-29T13:37:01.145Z,3.35
2019-01-29T13:39:32.065Z,3.35
2019-01-29T13:42:03.317Z,3.20
2019-01-29T13:44:34.216Z,3.19
2019-01-29T13:47:05.278Z,3.14
2019-01-29T13:49:36.179Z,3.15
2019-01-29T13:52:07.108Z,3.10
2019-01-29T13:54:38.018Z,3.10
2019-01-29T13:57:08.926Z,3.20
2019-01-29T13:59:39.872Z,3.15
2019-01-29T14:02:11.039Z,3.18
2019-01-29T14:04:42.004Z,3.22
2019-01-29T14:07:13.234Z,3.19
2019-01-29T14:09:44.129Z,3.17
2019-01-29T14:12:15.147Z,3.14
2019-01-29T14:14:46.373Z,3.09
2019-01-29T14:17:17.380Z,3.08
2019-01-29T14:19:48.274Z,3.04
2019-01-29T14:22:19.419Z,3.12
2019-01-29T14:24:50.387Z,3.19
2019-01-29T14:27:21.285Z,3.21
2019-01-29T14:29:52.260Z,3.19
2019-01-29T14:32:23.161Z,3.14
2019-01-29T14:34:54.139Z,3.27
2019-01-29T14:37:25.052Z,3.17
2019-01-29T14:40:20.422Z,3.29
2019-01-29T14:42:52.159Z,3.30
2019-01-29T14:45:26.665Z,3.46
2019-01-29T14:47:57.657Z,3.50
2019-01-29T14:50:29.912Z,3.43
2019-01-29T14:53:01.249Z,3.42
2019-01-29T14:55:32.186Z,3.34
2019-01-29T14:58:03.169Z,3.41
2019-01-29T15:00:34.388Z,3.48
2019-01-29T15:03:05.329Z,3.38
2019-01-29T15:05:36.575Z,3.35
2019-01-29T15:08:08.102Z,3.27
2019-01-29T15:10:39.107Z,3.30
2019-01-29T15:13:10.155Z,3.41
2019-01-29T15:15:47.759Z,3.44
2019-01-29T15:18:25.213Z,3.24
2019-01-29T15:20:56.390Z,3.30
2019-01-29T15:23:27.353Z,3.33
2019-01-29T15:25:58.306Z,3.27
2019-01-29T15:28:29.592Z,3.30
2019-01-29T15:31:00.510Z,3.12
2019-01-29T15:33:31.702Z,3.04
2019-01-29T15:36:02.945Z,3.01
2019-01-29T15:38:34.190Z,3.00
2019-01-29T15:41:06.674Z,2.82
2019-01-29T15:43:37.954Z,2.75
2019-01-29T15:46:08.869Z,2.69
2019-01-29T15:48:40.126Z,2.49
2019-01-29T15:51:11.312Z,2.36
2019-01-29T15:53:42.216Z,2.31
2019-01-29T15:56:13.449Z,2.25
2019-01-29T15:58:44.349Z,2.14
2019-01-29T16:01:15.309Z,2.28
2019-01-29T16:03:46.188Z,2.30
2019-01-29T16:06:17.092Z,2.31
2019-01-29T16:08:48.336Z,2.34
2019-01-29T16:11:19.311Z,2.34
2019-01-29T16:13:50.352Z,2.34
2019-01-29T16:16:21.272Z,2.30
2019-01-29T16:18:52.183Z,2.25
2019-01-29T16:21:23.185Z,2.13
2019-01-29T16:23:54.342Z,2.11
2019-01-29T16:26:25.296Z,2.25
2019-01-29T16:28:56.938Z,2.28
2019-01-29T16:31:28.415Z,2.33
2019-01-29T16:33:59.376Z,2.25
2019-01-29T16:36:30.375Z,2.18
2019-01-29T16:39:01.307Z,2.08
2019-01-29T16:41:32.345Z,1.99
2019-01-29T16:44:03.631Z,1.95
2019-01-29T16:46:34.534Z,1.97
2019-01-29T16:49:05.436Z,2.17
2019-01-29T16:51:42.198Z,2.12
2019-01-29T16:54:09.292Z,2.15
2019-01-29T16:56:40.279Z,2.00
2019-01-29T16:59:11.213Z,1.85
2019-01-29T17:01:42.475Z,1.78
2019-01-29T17:04:13.717Z,1.64
2019-01-29T17:06:44.614Z,1.53
2019-01-29T17:09:16.032Z,1.37
2019-01-29T17:11:46.959Z,1.29
2019-01-29T17:14:17.930Z,1.17
2019-01-29T17:16:48.890Z,1.10
2019-01-29T17:19:19.783Z,1.00
2019-01-29T17:21:50.849Z,0.87
2019-01-29T17:24:21.789Z,0.87
2019-01-29T17:26:52.786Z,0.78
2019-01-29T17:29:23.798Z,0.73
2019-01-29T17:31:54.760Z,0.69
2019-01-29T17:34:25.729Z,0.66
2019-01-29T17:36:56.635Z,0.50
2019-01-29T17:39:27.658Z,0.33
2019-01-29T17:41:58.879Z,0.28
2019-01-29T17:44:29.822Z,0.17
2019-01-29T17:47:00.781Z,0.11
2019-01-29T17:49:31.706Z,0.06
2019-01-29T17:52:02.679Z,0.01
2019-01-29T17:54:33.599Z,-0.06
2019-01-29T17:57:04.668Z,-0.01
2019-01-29T17:59:37.285Z,-0.03
2019-01-29T18:02:09.126Z,-0.06
2019-01-29T18:04:40.091Z,-0.11
2019-01-29T18:07:11.013Z,-0.16
2019-01-29T18:09:41.968Z,-0.15
2019-01-29T18:12:12.962Z,-0.19
2019-01-29T18:14:44.218Z,-0.22
2019-01-29T18:17:15.830Z,-0.28
2019-01-29T18:19:47.168Z,-0.32
2019-01-29T18:22:18.158Z,-0.39
2019-01-29T18:24:49.122Z,-0.45
2019-01-29T18:27:20.319Z,-0.55
2019-01-29T18:29:51.599Z,-0.59
2019-01-29T18:32:22.809Z,-0.61
2019-01-29T18:34:55.865Z,-0.65
2019-01-29T18:37:27.367Z,-0.69
2019-01-29T18:40:00.126Z,-0.71
2019-01-29T18:42:31.077Z,-0.80
2019-01-29T18:45:02.405Z,-0.75
2019-01-29T18:47:33.373Z,-0.69
2019-01-29T18:50:06.046Z,-0.71
2019-01-29T18:52:38.083Z,-0.75
2019-01-29T18:55:10.046Z,-0.68
2019-01-29T18:57:41.244Z,-0.63
2019-01-29T19:00:21.984Z,-0.71
2019-01-29T19:02:53.548Z,-0.73
2019-01-29T19:05:25.941Z,-0.74
2019-01-29T19:07:56.951Z,-0.83
2019-01-29T19:10:28.167Z,-0.89
2019-01-29T19:13:00.387Z,-0.93
2019-01-29T19:15:31.368Z,-0.81
2019-01-29T19:18:02.467Z,-0.93
2019-01-29T19:20:33.356Z,-0.96
2019-01-29T19:23:04.273Z,-0.99
2019-01-29T19:25:35.931Z,-1.02
2019-01-29T19:28:06.937Z,-1.01
2019-01-29T19:30:38.215Z,-0.98
2019-01-29T19:33:09.284Z,-1.03
2019-01-29T19:35:42.558Z,-1.08
2019-01-29T19:38:13.460Z,-0.98
2019-01-29T19:40:44.386Z,-0.96
2019-01-29T19:43:16.406Z,-1.04
2019-01-29T19:45:50.030Z,-1.07
2019-01-29T19:48:21.342Z,-0.98
2019-01-29T19:50:52.255Z,-0.98
2019-01-29T19:53:23.435Z,-1.01
2019-01-29T19:55:54.376Z,-1.10
2019-01-29T19:58:31.992Z,-1.12
2019-01-29T20:01:00.217Z,-1.05
2019-01-29T20:03:31.739Z,-1.10
2019-01-29T20:06:02.654Z,-1.15
2019-01-29T20:08:33.898Z,-1.21
2019-01-29T20:11:05.198Z,-1.17
2019-01-29T20:13:39.236Z,-1.16
2019-01-29T20:16:09.712Z,-1.11
2019-01-29T20:18:40.948Z,-0.99
2019-01-29T20:21:11.873Z,-1.01
2019-01-29T20:23:42.828Z,-1.08
2019-01-29T20:26:13.863Z,-1.22
2019-01-29T20:28:47.496Z,-1.25
2019-01-29T20:31:18.840Z,-1.23
2019-01-29T20:33:50.126Z,-1.26
2019-01-29T20:36:21.036Z,-1.28
2019-01-29T20:38:51.983Z,-1.33
2019-01-29T20:41:22.888Z,-1.38
2019-01-29T20:43:53.955Z,-1.46
2019-01-29T20:46:24.898Z,-1.54
2019-01-29T20:48:57.526Z,-1.51
2019-01-29T20:51:29.554Z,-1.51
2019-01-29T20:54:03.049Z,-1.58
2019-01-29T20:56:34.315Z,-1.62
2019-01-29T20:59:05.358Z,-1.68
2019-01-29T21:01:36.356Z,-1.72
2019-01-29T21:04:07.412Z,-1.71
2019-01-29T21:06:38.310Z,-1.71
2019-01-29T21:09:11.024Z,-1.64
2019-01-29T21:11:42.247Z,-1.55
2019-01-29T21:14:13.196Z,-1.61
2019-01-29T21:16:44.438Z,-1.63
2019-01-29T21:19:15.362Z,-1.64
2019-01-29T21:21:46.745Z,-1.74
2019-01-29T21:24:19.865Z,-1.83
2019-01-29T21:26:50.881Z,-1.85
2019-01-29T21:29:22.667Z,-1.66
2019-01-29T21:31:53.647Z,-1.66
2019-01-29T21:34:24.573Z,-1.63
2019-01-29T21:36:56.394Z,-1.51
2019-01-29T21:39:27.618Z,-1.59
2019-01-29T21:41:58.648Z,-1.62
2019-01-29T21:44:29.601Z,-1.48
2019-01-29T21:47:00.523Z,-1.47
2019-01-29T21:49:31.428Z,-1.48
2019-01-29T21:52:02.357Z,-1.53
2019-01-29T21:54:33.843Z,-1.57
2019-01-29T21:57:05.078Z,-1.51
2019-01-29T21:59:35.967Z,-1.54
2019-01-29T22:02:07.313Z,-1.53
2019-01-29T22:04:38.222Z,-1.53
2019-01-29T22:07:09.124Z,-1.57
2019-01-29T22:09:40.087Z,-1.57
2019-01-29T22:12:11.023Z,-1.71
2019-01-29T22:14:42.354Z,-1.83
2019-01-29T22:17:13.329Z,-1.80
2019-01-29T22:19:44.531Z,-1.87
2019-01-29T22:22:15.463Z,-1.87
2019-01-29T22:24:46.371Z,-1.96
2019-01-29T22:27:17.555Z,-1.97
2019-01-29T22:29:48.804Z,-2.03
2019-01-29T22:32:19.704Z,-2.07
2019-01-29T22:34:50.731Z,-2.10
2019-01-29T22:37:21.643Z,-2.09
2019-01-29T22:39:52.570Z,-2.09
2019-01-29T22:42:23.490Z,-2.16
2019-01-29T22:44:54.661Z,-2.16
2019-01-29T22:47:25.618Z,-2.19
2019-01-29T22:49:56.511Z,-2.25
2019-01-29T22:52:27.769Z,-2.24
2019-01-29T22:54:58.724Z,-2.27
2019-01-29T22:57:29.616Z,-2.16
2019-01-29T23:00:00.682Z,-2.23
2019-01-29T23:02:31.916Z,-2.20
2019-01-29T23:05:02.806Z,-2.13
2019-01-29T23:07:38.123Z,-1.96
2019-01-29T23:10:16.109Z,-1.96
2019-01-29T23:12:47.156Z,-1.90
2019-01-29T23:15:19.931Z,-1.85
2019-01-29T23:17:53.063Z,-1.85
2019-01-29T23:20:23.675Z,-1.75
2019-01-29T23:22:54.569Z,-1.86
2019-01-29T23:25:25.537Z,-1.82
2019-01-29T23:27:56.453Z,-1.85
2019-01-29T23:30:27.461Z,-1.82
2019-01-29T23:32:58.432Z,-1.84
2019-01-29T23:35:29.328Z,-1.87
2019-01-29T23:38:00.283Z,-1.92
2019-01-29T23:40:31.178Z,-1.89
2019-01-29T23:43:02.090Z,-1.93
2019-01-29T23:45:33.049Z,-1.95
2019-01-29T23:48:04.013Z,-1.93
2019-01-29T23:50:34.947Z,-1.79
2019-01-29T23:53:05.984Z,-1.69
2019-01-29T23:55:36.898Z,-1.71
2019-01-29T23:58:07.949Z,-1.69
